Time;durP1;ratioP1;P1;durP2;ratioP2;P2;SDS_P1;SDS_P2;PMS_P1;PMS_P2;Temp;Humidity;BMP_temperature;BMP_pressure;BME280_temperature;BME280_humidity;BME280_pressure;Samples;Min_cycle;Max_cycle;Signal;HPM_P1;HPM_P2
2021/12/23 00:01:43;;;;;;;24.73;22.17;;;-1.10;99.90;;;;;;5045837;28;20514;-70
2021/12/23 00:04:10;;;;;;;24.60;22.00;;;-1.10;99.90;;;;;;5046822;28;20048;-70
2021/12/23 00:06:37;;;;;;;25.70;22.90;;;-1.10;99.90;;;;;;5045504;28;20140;-70
2021/12/23 00:09:04;;;;;;;24.43;21.83;;;-1.10;99.90;;;;;;5045954;28;20048;-70
2021/12/23 00:11:31;;;;;;;27.60;23.47;;;-1.10;99.90;;;;;;5045660;28;20049;-71
2021/12/23 00:14:04;;;;;;;23.17;20.77;;;-1.10;99.90;;;;;;5030274;28;20037;-72
2021/12/23 00:16:47;;;;;;;25.70;22.90;;;-1.00;99.90;;;;;;5027231;28;20114;-71
2021/12/23 00:19:35;;;;;;;24.63;22.13;;;-1.00;99.90;;;;;;5031180;28;20411;-71
2021/12/23 00:24:47;;;;;;;25.30;22.60;;;-1.00;99.90;;;;;;5032456;28;20114;-72
2021/12/23 00:27:14;;;;;;;24.30;21.80;;;-1.00;99.90;;;;;;5014176;28;20496;-71
2021/12/23 00:29:41;;;;;;;24.97;22.27;;;-1.00;99.90;;;;;;5012811;28;20081;-71
2021/12/23 00:32:08;;;;;;;25.67;23.00;;;-1.00;99.90;;;;;;5046667;28;20045;-70
2021/12/23 00:34:38;;;;;;;23.70;21.30;;;-0.90;99.90;;;;;;5028969;28;20128;-71
2021/12/23 00:37:07;;;;;;;25.00;22.48;;;-0.90;99.90;;;;;;5046297;28;20095;-71
2021/12/23 00:39:33;;;;;;;25.83;23.07;;;-0.90;99.90;;;;;;5045496;28;20049;-71
2021/12/23 00:42:07;;;;;;;25.93;23.17;;;-0.80;99.90;;;;;;5028438;28;20048;-71
2021/12/23 00:44:35;;;;;;;23.63;21.13;;;-0.80;99.90;;;;;;5027725;28;20551;-71
2021/12/23 00:47:01;;;;;;;24.23;21.80;;;-0.80;99.90;;;;;;5028550;28;20099;-71
2021/12/23 00:49:27;;;;;;;24.53;21.93;;;-0.80;99.90;;;;;;5028945;28;20506;-71
2021/12/23 00:51:54;;;;;;;24.73;22.20;;;-0.80;99.90;;;;;;5044999;28;20045;-72
2021/12/23 00:54:20;;;;;;;25.83;23.03;;;-0.70;99.90;;;;;;4995274;28;20073;-72
2021/12/23 00:56:49;;;;;;;26.87;23.00;;;-0.80;99.90;;;;;;5046670;28;20044;-72
2021/12/23 00:59:15;;;;;;;24.17;21.83;;;-0.80;99.90;;;;;;5045025;28;20045;-72
2021/12/23 01:01:41;;;;;;;25.03;22.43;;;-0.70;99.90;;;;;;5044274;28;20033;-72
2021/12/23 01:04:07;;;;;;;25.20;22.47;;;-0.70;99.90;;;;;;5044887;28;20041;-72
2021/12/23 01:06:33;;;;;;;25.07;22.50;;;-0.70;99.90;;;;;;5044664;28;20511;-72
2021/12/23 01:08:59;;;;;;;25.53;22.87;;;-0.70;99.90;;;;;;5044855;28;20116;-72
2021/12/23 01:11:27;;;;;;;25.20;22.60;;;-0.70;99.90;;;;;;5044425;28;20052;-72
2021/12/23 01:14:13;;;;;;;24.03;21.50;;;-0.70;99.90;;;;;;5042771;28;20522;-72
2021/12/23 01:19:38;;;;;;;25.87;23.17;;;-0.70;99.90;;;;;;5014417;28;20146;-72
2021/12/23 01:22:04;;;;;;;25.57;22.97;;;-0.60;99.90;;;;;;5012936;28;20061;-72
2021/12/23 01:24:33;;;;;;;23.67;21.13;;;-0.70;99.90;;;;;;5044320;28;20198;-71
2021/12/23 01:27:00;;;;;;;24.27;21.77;;;-0.70;99.90;;;;;;5044888;28;20053;-70
2021/12/23 01:29:25;;;;;;;23.87;21.47;;;-0.60;99.90;;;;;;5026437;28;20130;-71
2021/12/23 01:31:51;;;;;;;24.20;21.70;;;-0.60;99.90;;;;;;5028260;28;20041;-71
2021/12/23 01:34:17;;;;;;;25.90;23.17;;;-0.60;99.90;;;;;;5010557;28;20060;-71
2021/12/23 01:36:46;;;;;;;26.07;23.57;;;-0.50;99.90;;;;;;5044314;28;20080;-70
2021/12/23 01:39:13;;;;;;;26.23;23.53;;;-0.50;99.90;;;;;;5044246;28;20040;-71
2021/12/23 01:41:40;;;;;;;27.00;24.17;;;-0.60;99.90;;;;;;5043724;28;20076;-70
2021/12/23 01:44:06;;;;;;;24.33;21.73;;;-0.50;99.90;;;;;;5044426;28;20052;-70
2021/12/23 01:46:32;;;;;;;27.13;24.43;;;-0.50;99.90;;;;;;5024902;28;20044;-71
2021/12/23 01:48:58;;;;;;;26.00;23.33;;;-0.60;99.90;;;;;;5044130;28;20083;-71
2021/12/23 01:51:24;;;;;;;28.83;25.97;;;-0.50;99.90;;;;;;5026918;28;20041;-70
2021/12/23 01:53:50;;;;;;;26.47;23.67;;;-0.50;99.90;;;;;;5027768;28;20393;-71
2021/12/23 01:56:17;;;;;;;26.63;23.73;;;-0.60;99.90;;;;;;5028133;28;20037;-71
2021/12/23 01:58:44;;;;;;;28.50;25.47;;;-0.50;99.90;;;;;;5027138;28;20047;-71
2021/12/23 02:01:10;;;;;;;29.43;26.33;;;-0.60;99.90;;;;;;5026119;28;20718;-71
2021/12/23 02:03:37;;;;;;;25.60;22.73;;;-0.60;99.90;;;;;;5042004;28;20048;-71
2021/12/23 02:06:03;;;;;;;26.10;23.50;;;-0.50;99.90;;;;;;5040122;28;20484;-71
2021/12/23 02:08:29;;;;;;;28.80;24.50;;;-0.50;99.90;;;;;;5043870;28;20076;-71
2021/12/23 02:10:55;;;;;;;28.60;25.60;;;-0.50;99.90;;;;;;5044329;28;20448;-71
2021/12/23 02:13:22;;;;;;;27.30;24.60;;;-0.60;99.90;;;;;;5044042;28;20448;-71
2021/12/23 02:15:51;;;;;;;26.93;24.23;;;-0.60;99.90;;;;;;5026457;28;20076;-71
2021/12/23 02:18:19;;;;;;;29.47;26.63;;;-0.60;99.90;;;;;;5011447;28;20033;-71
2021/12/23 02:20:45;;;;;;;29.63;26.37;;;-0.50;99.90;;;;;;5012377;28;20503;-71
2021/12/23 02:23:11;;;;;;;29.07;25.93;;;-0.60;99.90;;;;;;5044549;28;20131;-70
2021/12/23 02:25:37;;;;;;;28.70;25.70;;;-0.50;99.90;;;;;;5011876;28;20052;-70
2021/12/23 02:28:07;;;;;;;27.50;24.57;;;-0.50;99.90;;;;;;5028268;28;20029;-70
2021/12/23 02:30:38;;;;;;;27.52;24.73;;;-0.50;99.90;;;;;;5024797;28;20044;-70
2021/12/23 02:33:06;;;;;;;28.70;25.70;;;-0.50;99.90;;;;;;5040655;28;20504;-70
2021/12/23 02:35:33;;;;;;;29.13;26.10;;;-0.50;99.90;;;;;;5024456;28;20110;-70
2021/12/23 02:38:03;;;;;;;27.53;24.83;;;-0.50;99.90;;;;;;5027296;28;20047;-70
2021/12/23 02:40:33;;;;;;;28.65;25.65;;;-0.40;99.90;;;;;;5027269;28;20041;-70
2021/12/23 02:43:15;;;;;;;28.58;25.52;;;-0.50;99.90;;;;;;5043802;28;20057;-70
2021/12/23 02:45:43;;;;;;;29.87;26.77;;;-0.50;99.90;;;;;;5042628;28;20037;-70
2021/12/23 02:48:17;;;;;;;28.87;25.87;;;-0.50;99.90;;;;;;5027092;28;20498;-71
2021/12/23 02:50:50;;;;;;;29.03;26.13;;;-0.50;99.90;;;;;;5042866;28;20472;-71
2021/12/23 02:53:17;;;;;;;27.40;24.47;;;-0.40;99.90;;;;;;5040766;28;20517;-71
2021/12/23 02:55:45;;;;;;;29.87;26.07;;;-0.40;99.90;;;;;;5042962;28;20102;-71
2021/12/23 02:58:11;;;;;;;27.80;25.03;;;-0.40;99.90;;;;;;5043306;28;20041;-71
2021/12/23 03:00:38;;;;;;;29.10;25.53;;;-0.40;99.90;;;;;;5038177;28;20040;-72
2021/12/23 03:03:04;;;;;;;28.97;25.97;;;-0.50;99.90;;;;;;5038887;28;21063;-72
2021/12/23 03:05:30;;;;;;;28.50;25.57;;;-0.40;99.90;;;;;;5044139;28;20049;-71
2021/12/23 03:07:57;;;;;;;29.20;26.20;;;-0.40;99.90;;;;;;5043874;28;20049;-70
2021/12/23 03:10:23;;;;;;;29.13;25.03;;;-0.40;99.90;;;;;;5061806;28;20135;-70
2021/12/23 03:12:52;;;;;;;27.57;24.67;;;-0.40;99.90;;;;;;5012538;28;20554;-70
2021/12/23 03:15:18;;;;;;;28.83;25.73;;;-0.40;99.90;;;;;;5026154;28;20049;-70
2021/12/23 03:17:44;;;;;;;29.67;25.60;;;-0.40;99.90;;;;;;5010364;28;20970;-70
2021/12/23 03:20:10;;;;;;;28.13;25.23;;;-0.40;99.90;;;;;;5012236;28;20064;-70
2021/12/23 03:22:36;;;;;;;28.53;25.63;;;-0.40;99.90;;;;;;5028153;28;20522;-70
2021/12/23 03:25:02;;;;;;;28.43;25.43;;;-0.40;99.90;;;;;;5031326;28;20061;-70
2021/12/23 03:27:31;;;;;;;30.23;27.17;;;-0.40;99.90;;;;;;5032028;28;20052;-71
2021/12/23 03:29:56;;;;;;;29.17;26.07;;;-0.40;99.90;;;;;;5027067;28;20574;-70
2021/12/23 03:32:25;;;;;;;29.87;26.77;;;-0.40;99.90;;;;;;5040834;28;20067;-71
2021/12/23 03:34:51;;;;;;;29.03;25.93;;;-0.40;99.90;;;;;;5029665;28;20047;-70
2021/12/23 03:37:17;;;;;;;28.53;25.50;;;-0.40;99.90;;;;;;5046639;28;20041;-70
2021/12/23 03:39:43;;;;;;;27.73;24.77;;;-0.30;99.90;;;;;;5046707;28;20055;-70
2021/12/23 03:42:09;;;;;;;27.57;24.67;;;-0.30;99.90;;;;;;5043270;28;20081;-71
2021/12/23 03:44:35;;;;;;;28.57;25.47;;;-0.30;99.90;;;;;;5029228;28;20047;-71
2021/12/23 03:47:00;;;;;;;30.70;26.50;;;-0.30;99.90;;;;;;5030143;28;20507;-70
2021/12/23 03:49:26;;;;;;;28.80;25.73;;;-0.30;99.90;;;;;;5030036;28;20194;-70
2021/12/23 03:51:52;;;;;;;27.60;24.67;;;-0.30;99.90;;;;;;5029836;28;20045;-70
2021/12/23 03:54:18;;;;;;;29.33;25.90;;;-0.30;99.90;;;;;;5029596;28;20041;-71
2021/12/23 03:56:44;;;;;;;27.90;25.00;;;-0.30;99.90;;;;;;5029299;28;20450;-70
2021/12/23 03:59:10;;;;;;;29.30;26.10;;;-0.30;99.90;;;;;;5023200;28;20087;-71
2021/12/23 04:01:36;;;;;;;27.53;24.63;;;-0.20;99.90;;;;;;5011711;28;20032;-71
2021/12/23 04:04:05;;;;;;;29.73;26.43;;;-0.20;99.90;;;;;;5029179;28;20442;-70
2021/12/23 04:06:30;;;;;;;29.50;26.40;;;-0.20;99.90;;;;;;5045757;28;20049;-71
2021/12/23 04:08:56;;;;;;;27.33;24.17;;;-0.20;99.90;;;;;;5029635;28;20045;-70
2021/12/23 04:11:22;;;;;;;28.43;25.47;;;-0.20;99.90;;;;;;5046147;28;20048;-71
2021/12/23 04:13:48;;;;;;;29.03;26.00;;;-0.20;99.90;;;;;;5045510;28;20300;-71
2021/12/23 04:16:14;;;;;;;29.50;26.10;;;-0.20;99.90;;;;;;5028246;28;20526;-71
2021/12/23 04:18:44;;;;;;;28.77;25.47;;;-0.10;99.90;;;;;;5028661;28;20120;-71
2021/12/23 04:21:13;;;;;;;29.27;25.93;;;-0.10;99.90;;;;;;5014115;28;20048;-71
2021/12/23 04:23:39;;;;;;;28.57;25.60;;;-0.10;99.90;;;;;;5011528;28;20174;-71
2021/12/23 04:26:07;;;;;;;30.20;26.03;;;-0.10;99.90;;;;;;5030271;28;20559;-71
2021/12/23 04:28:35;;;;;;;30.40;26.37;;;-0.10;99.90;;;;;;5029898;28;20033;-71
2021/12/23 04:31:01;;;;;;;30.20;26.97;;;-0.10;99.90;;;;;;5045129;28;20120;-71
2021/12/23 04:33:27;;;;;;;29.07;25.93;;;-0.10;99.90;;;;;;4996278;28;20483;-73
2021/12/23 04:35:52;;;;;;;30.43;27.23;;;-0.10;99.90;;;;;;5043705;28;20049;-72
2021/12/23 04:38:18;;;;;;;30.77;27.47;;;-0.10;99.90;;;;;;5028639;28;20759;-71
2021/12/23 04:40:44;;;;;;;29.83;26.73;;;-0.10;99.90;;;;;;5043568;28;20458;-71
2021/12/23 04:43:10;;;;;;;28.07;24.97;;;-0.10;99.90;;;;;;5045609;28;20111;-71
2021/12/23 04:45:36;;;;;;;29.37;26.40;;;-0.10;99.90;;;;;;5045092;28;20043;-71
2021/12/23 04:48:02;;;;;;;33.70;27.80;;;-0.10;99.90;;;;;;5046018;28;20420;-71
2021/12/23 04:50:28;;;;;;;28.63;25.67;;;-0.10;99.90;;;;;;5028645;28;20048;-71
2021/12/23 04:52:54;;;;;;;30.17;26.93;;;0.00;99.90;;;;;;5045182;28;20569;-71
2021/12/23 04:55:20;;;;;;;29.20;26.10;;;-0.10;99.90;;;;;;5028118;28;20044;-72
2021/12/23 04:57:46;;;;;;;29.57;26.40;;;0.00;99.90;;;;;;5044480;28;20122;-71
2021/12/23 05:00:15;;;;;;;30.73;27.50;;;-0.10;99.90;;;;;;5026396;28;20048;-71
2021/12/23 05:02:41;;;;;;;32.40;28.03;;;0.00;99.90;;;;;;5044848;28;20037;-69
2021/12/23 05:05:08;;;;;;;30.63;27.37;;;0.00;99.90;;;;;;5013127;28;20055;-70
2021/12/23 05:07:34;;;;;;;29.47;26.37;;;0.00;99.90;;;;;;5046181;28;20041;-70
2021/12/23 05:10:00;;;;;;;29.77;26.53;;;0.00;99.90;;;;;;5046582;28;20137;-70
2021/12/23 05:12:26;;;;;;;31.57;28.23;;;0.00;99.90;;;;;;5030043;28;20132;-71
2021/12/23 05:14:52;;;;;;;31.83;28.43;;;0.00;99.90;;;;;;5029728;28;20407;-70
2021/12/23 05:17:17;;;;;;;30.77;27.47;;;0.00;99.90;;;;;;5024928;28;20037;-70
2021/12/23 05:19:43;;;;;;;32.33;28.83;;;0.00;99.90;;;;;;5026070;28;20045;-70
2021/12/23 05:22:09;;;;;;;30.83;27.53;;;0.00;99.90;;;;;;5026627;28;20053;-71
2021/12/23 05:24:35;;;;;;;30.17;26.97;;;0.00;99.90;;;;;;5042345;28;20067;-70
2021/12/23 05:27:01;;;;;;;30.93;27.53;;;0.10;99.90;;;;;;5046801;28;20048;-70
2021/12/23 05:29:26;;;;;;;31.00;27.70;;;0.10;99.90;;;;;;5042097;28;20481;-71
2021/12/23 05:31:52;;;;;;;32.20;28.17;;;0.10;99.90;;;;;;5009899;28;20057;-71
2021/12/23 05:34:18;;;;;;;29.47;26.30;;;0.10;99.90;;;;;;5011847;28;20144;-70
2021/12/23 05:36:44;;;;;;;30.13;26.83;;;0.10;99.90;;;;;;5029614;28;20048;-70
2021/12/23 05:39:10;;;;;;;30.47;27.17;;;0.10;99.90;;;;;;5046215;28;20079;-71
2021/12/23 05:41:36;;;;;;;30.83;27.13;;;0.10;99.90;;;;;;5043741;28;20040;-71
2021/12/23 05:44:03;;;;;;;31.03;27.73;;;0.10;99.90;;;;;;5028486;28;20053;-71
2021/12/23 05:46:29;;;;;;;31.13;27.83;;;0.10;99.90;;;;;;5029721;28;20041;-71
2021/12/23 05:48:55;;;;;;;31.67;27.90;;;0.10;99.90;;;;;;5029954;28;20083;-71
2021/12/23 05:51:21;;;;;;;33.60;28.10;;;0.10;99.90;;;;;;5029301;28;20053;-71
2021/12/23 05:53:47;;;;;;;32.33;28.93;;;0.10;99.90;;;;;;5045612;28;20144;-71
2021/12/23 05:56:13;;;;;;;31.40;28.00;;;0.10;99.90;;;;;;5045813;28;20211;-70
2021/12/23 05:58:39;;;;;;;32.50;29.00;;;0.10;99.90;;;;;;5028605;28;20047;-71
2021/12/23 06:01:05;;;;;;;29.80;26.80;;;0.10;99.90;;;;;;5012679;28;20083;-71
2021/12/23 06:03:31;;;;;;;32.67;29.23;;;0.10;99.90;;;;;;5026122;28;20044;-70
2021/12/23 06:05:57;;;;;;;31.57;28.17;;;0.10;99.90;;;;;;5046165;28;20087;-70
2021/12/23 06:08:23;;;;;;;31.33;28.00;;;0.10;99.90;;;;;;5013200;28;20457;-71
2021/12/23 06:10:48;;;;;;;31.50;28.07;;;0.10;99.90;;;;;;5028714;28;20056;-70
2021/12/23 06:13:14;;;;;;;30.73;27.43;;;0.10;99.90;;;;;;5029896;28;20071;-71
2021/12/23 06:15:40;;;;;;;32.07;28.57;;;0.10;99.90;;;;;;5044460;28;20124;-70
2021/12/23 06:18:06;;;;;;;31.73;28.13;;;0.10;99.90;;;;;;5030235;28;20037;-71
2021/12/23 06:20:32;;;;;;;32.77;28.83;;;0.10;99.90;;;;;;5028601;28;20404;-70
2021/12/23 06:22:58;;;;;;;32.77;29.30;;;0.10;99.90;;;;;;5030459;28;20051;-70
2021/12/23 06:25:24;;;;;;;34.73;28.87;;;0.10;99.90;;;;;;5028043;28;20300;-71
2021/12/23 06:27:50;;;;;;;32.90;29.40;;;0.00;99.90;;;;;;5060194;28;20045;-70
2021/12/23 06:30:18;;;;;;;33.27;29.77;;;0.10;99.90;;;;;;5017195;28;20083;-70
2021/12/23 06:32:52;;;;;;;32.93;26.90;;;0.10;99.90;;;;;;5021954;28;20075;-70
2021/12/23 06:35:19;;;;;;;33.37;29.87;;;0.10;99.90;;;;;;5034389;28;20057;-72
2021/12/23 06:37:45;;;;;;;34.63;30.93;;;0.00;99.90;;;;;;5033891;28;20042;-72
2021/12/23 06:40:12;;;;;;;33.37;29.77;;;0.10;99.90;;;;;;5052427;28;20038;-73
2021/12/23 06:42:38;;;;;;;33.43;29.93;;;0.10;99.90;;;;;;5015607;28;20466;-70
2021/12/23 06:45:06;;;;;;;34.47;30.93;;;0.10;99.90;;;;;;5032186;28;20617;-71
2021/12/23 06:47:33;;;;;;;33.60;29.97;;;0.10;99.90;;;;;;5021489;28;20268;-71
2021/12/23 06:49:59;;;;;;;34.73;31.03;;;0.10;99.90;;;;;;5021384;28;20048;-70
2021/12/23 06:52:24;;;;;;;34.47;30.90;;;0.10;99.90;;;;;;5044517;28;20037;-70
2021/12/23 06:54:55;;;;;;;35.30;30.90;;;0.10;99.90;;;;;;5013536;28;20052;-70
2021/12/23 06:57:21;;;;;;;32.97;29.53;;;0.10;99.90;;;;;;5027933;28;20170;-70
2021/12/23 06:59:47;;;;;;;34.43;30.87;;;0.20;99.90;;;;;;5020510;28;20060;-71
2021/12/23 07:02:14;;;;;;;34.80;31.00;;;0.10;99.90;;;;;;5037085;28;20068;-71
2021/12/23 07:04:43;;;;;;;34.60;30.87;;;0.20;99.90;;;;;;5021917;28;20130;-69
2021/12/23 07:07:09;;;;;;;34.10;30.40;;;0.10;99.90;;;;;;5051698;28;21324;-70
2021/12/23 07:09:42;;;;;;;34.53;30.77;;;0.20;99.90;;;;;;5021796;28;20045;-71
2021/12/23 07:12:10;;;;;;;36.27;32.37;;;0.20;99.90;;;;;;5025924;28;20048;-72
2021/12/23 07:14:38;;;;;;;34.73;31.03;;;0.20;99.90;;;;;;5038988;28;20063;-71
2021/12/23 07:17:05;;;;;;;35.60;31.83;;;0.20;99.90;;;;;;5031052;28;20052;-72
2021/12/23 07:19:30;;;;;;;33.33;29.93;;;0.20;99.90;;;;;;5042378;28;20102;-73
2021/12/23 07:21:56;;;;;;;37.67;32.93;;;0.20;99.90;;;;;;5035209;28;20061;-71
2021/12/23 07:24:22;;;;;;;36.37;32.60;;;0.20;99.90;;;;;;5038086;28;20076;-71
2021/12/23 07:26:48;;;;;;;36.43;32.53;;;0.20;99.90;;;;;;5024445;28;20397;-72
2021/12/23 07:29:14;;;;;;;35.37;31.77;;;0.30;99.90;;;;;;5043668;28;20033;-71
2021/12/23 07:31:40;;;;;;;38.00;33.63;;;0.30;99.90;;;;;;5028502;28;20047;-71
2021/12/23 07:34:06;;;;;;;37.23;32.53;;;0.30;99.90;;;;;;5030647;28;20048;-71
2021/12/23 07:36:32;;;;;;;36.93;33.03;;;0.30;99.90;;;;;;5044031;28;20052;-73
2021/12/23 07:39:01;;;;;;;38.57;34.47;;;0.30;99.90;;;;;;5046781;28;20045;-72
2021/12/23 07:41:27;;;;;;;36.30;32.47;;;0.30;99.90;;;;;;5048117;28;20055;-72
2021/12/23 07:43:59;;;;;;;36.40;32.53;;;0.30;99.90;;;;;;5046946;28;20053;-72
2021/12/23 07:46:28;;;;;;;38.73;34.33;;;0.30;99.90;;;;;;5011216;28;20091;-73
2021/12/23 07:48:55;;;;;;;36.70;32.77;;;0.30;99.90;;;;;;5011903;28;20358;-72
2021/12/23 07:51:21;;;;;;;38.73;34.63;;;0.30;99.90;;;;;;5045385;28;20045;-72
2021/12/23 07:53:48;;;;;;;37.70;33.80;;;0.30;99.90;;;;;;5013318;28;20045;-72
2021/12/23 07:56:13;;;;;;;37.13;32.97;;;0.40;99.90;;;;;;5045712;28;20041;-71
2021/12/23 07:58:39;;;;;;;39.20;35.10;;;0.40;99.90;;;;;;5028565;28;20037;-71
2021/12/23 08:01:05;;;;;;;38.20;34.10;;;0.40;99.90;;;;;;5046305;28;20567;-72
2021/12/23 08:03:31;;;;;;;38.40;34.30;;;0.40;99.90;;;;;;5010702;28;20175;-71
2021/12/23 08:05:57;;;;;;;39.00;34.77;;;0.40;99.90;;;;;;5029423;28;20045;-71
2021/12/23 08:08:24;;;;;;;39.90;35.67;;;0.40;99.90;;;;;;5027727;28;20095;-71
2021/12/23 08:10:50;;;;;;;37.53;33.53;;;0.40;99.90;;;;;;5057153;28;21941;-71
2021/12/23 08:13:17;;;;;;;39.93;35.63;;;0.40;99.90;;;;;;5047029;28;20579;-71
2021/12/23 08:15:43;;;;;;;37.80;33.90;;;0.40;99.90;;;;;;5042178;28;20033;-70
2021/12/23 08:18:09;;;;;;;37.30;33.30;;;0.40;99.90;;;;;;5060775;28;20041;-71
2021/12/23 08:20:35;;;;;;;41.50;36.90;;;0.40;99.90;;;;;;5041861;28;20124;-70
2021/12/23 08:23:01;;;;;;;38.27;34.17;;;0.40;99.90;;;;;;5029598;28;20135;-72
2021/12/23 08:25:27;;;;;;;39.43;35.07;;;0.40;99.90;;;;;;5027910;28;20029;-71
2021/12/23 08:27:53;;;;;;;38.50;34.33;;;0.40;99.90;;;;;;5011352;28;20076;-72
2021/12/23 08:30:20;;;;;;;40.13;36.00;;;0.40;99.90;;;;;;5036962;28;20246;-71
2021/12/23 08:32:47;;;;;;;41.03;36.70;;;0.40;99.90;;;;;;5039738;28;20044;-71
2021/12/23 08:35:14;;;;;;;40.63;36.23;;;0.40;99.90;;;;;;5018241;28;20041;-70
2021/12/23 08:37:41;;;;;;;41.60;37.23;;;0.30;99.90;;;;;;5038177;28;20041;-71
2021/12/23 08:40:08;;;;;;;41.40;36.90;;;0.40;99.90;;;;;;5026715;28;20041;-71
2021/12/23 08:42:35;;;;;;;42.97;37.90;;;0.40;99.90;;;;;;5044998;28;20483;-71
2021/12/23 08:45:04;;;;;;;41.23;36.83;;;0.30;99.90;;;;;;5042813;28;20045;-70
2021/12/23 08:47:30;;;;;;;43.57;38.73;;;0.40;99.90;;;;;;5028652;28;20049;-71
2021/12/23 08:49:56;;;;;;;45.27;40.10;;;0.40;99.90;;;;;;5041371;28;20403;-72
2021/12/23 08:52:23;;;;;;;46.20;40.43;;;0.30;99.90;;;;;;5027293;28;20044;-72
2021/12/23 08:54:49;;;;;;;44.97;39.40;;;0.40;99.90;;;;;;5022545;28;20124;-72
2021/12/23 08:57:15;;;;;;;46.40;41.33;;;0.30;99.90;;;;;;5040131;28;20048;-72
2021/12/23 08:59:41;;;;;;;49.77;42.83;;;0.40;99.90;;;;;;5040184;28;20337;-73
2021/12/23 09:02:08;;;;;;;52.93;45.73;;;0.50;99.90;;;;;;5034769;28;20127;-74
2021/12/23 09:04:34;;;;;;;51.40;45.00;;;0.40;99.90;;;;;;5025178;28;20049;-72
2021/12/23 09:07:01;;;;;;;52.03;45.47;;;0.40;99.90;;;;;;5021517;28;20436;-73
2021/12/23 09:09:30;;;;;;;49.50;43.43;;;0.40;99.90;;;;;;5024410;28;20512;-72
2021/12/23 09:11:56;;;;;;;57.17;47.57;;;0.50;99.90;;;;;;5026414;28;20041;-74
2021/12/23 09:14:22;;;;;;;56.07;47.80;;;0.40;99.90;;;;;;5023470;28;20060;-72
2021/12/23 09:16:48;;;;;;;57.67;49.30;;;0.40;99.90;;;;;;5008541;28;20047;-73
2021/12/23 09:19:14;;;;;;;55.73;47.47;;;0.40;99.90;;;;;;5040020;28;20041;-72
2021/12/23 09:21:40;;;;;;;60.87;51.30;;;0.50;99.90;;;;;;5041627;28;20068;-72
2021/12/23 09:24:06;;;;;;;59.83;47.97;;;0.40;99.90;;;;;;5040318;28;20453;-72
2021/12/23 09:26:40;;;;;;;64.60;51.87;;;0.40;99.90;;;;;;5022656;28;20080;-72
2021/12/23 09:29:16;;;;;;;64.53;53.27;;;0.40;99.90;;;;;;5020825;28;20072;-72
2021/12/23 09:34:27;;;;;;;65.57;53.13;;;0.40;99.90;;;;;;5043458;28;20571;-72
2021/12/23 09:36:53;;;;;;;73.53;56.07;;;0.50;99.90;;;;;;5007968;28;20099;-71
2021/12/23 09:39:18;;;;;;;74.27;56.77;;;0.50;99.90;;;;;;5024411;28;20041;-72
2021/12/23 09:41:45;;;;;;;74.23;56.17;;;0.60;99.90;;;;;;5037726;28;20045;-73
2021/12/23 09:44:11;;;;;;;77.23;57.70;;;0.50;99.90;;;;;;5022614;28;20041;-73
2021/12/23 09:46:38;;;;;;;72.07;54.33;;;0.50;99.90;;;;;;5036337;28;20269;-72
2021/12/23 09:49:06;;;;;;;75.57;57.17;;;0.50;99.90;;;;;;5033071;28;20103;-73
2021/12/23 09:51:33;;;;;;;72.57;56.20;;;0.50;99.90;;;;;;5034708;28;20041;-71
2021/12/23 09:54:06;;;;;;;78.37;57.70;;;0.60;99.90;;;;;;5008181;28;20056;-72
2021/12/23 09:56:32;;;;;;;78.43;59.33;;;0.50;99.90;;;;;;5035813;28;20041;-72
2021/12/23 09:58:59;;;;;;;79.17;57.07;;;0.60;99.90;;;;;;5037550;28;20416;-71
2021/12/23 10:01:29;;;;;;;80.00;59.13;;;0.60;99.90;;;;;;5037166;28;20411;-72
2021/12/23 10:03:56;;;;;;;79.63;57.78;;;0.70;99.90;;;;;;5007517;28;20114;-72
2021/12/23 10:06:24;;;;;;;85.03;62.57;;;0.60;99.90;;;;;;5027796;28;20055;-70
2021/12/23 10:08:50;;;;;;;82.13;60.37;;;0.60;99.90;;;;;;5039982;28;20041;-70
2021/12/23 10:11:28;;;;;;;86.90;61.03;;;0.60;99.90;;;;;;5026689;28;20040;-70
2021/12/23 10:31:38;;;;;;;104.80;69.90;;;0.60;99.90;;;;;;5017871;28;20432;-70
2021/12/23 10:37:22;;;;;;;87.47;61.67;;;0.70;99.90;;;;;;5042089;28;20406;-72
2021/12/23 10:39:54;;;;;;;87.50;61.70;;;0.70;99.90;;;;;;5030039;28;20488;-72
2021/12/23 10:42:24;;;;;;;97.83;64.73;;;0.60;99.90;;;;;;5047834;28;20056;-72
2021/12/23 10:45:00;;;;;;;100.15;65.35;;;0.70;99.90;;;;;;5047393;28;20624;-72
2021/12/23 10:47:41;;;;;;;103.10;69.37;;;0.70;99.90;;;;;;5046089;28;20044;-72
2021/12/23 10:50:48;;;;;;;106.60;70.47;;;0.70;99.90;;;;;;5047232;28;20476;-72
2021/12/23 10:53:38;;;;;;;101.03;68.80;;;0.70;99.90;;;;;;5040507;28;20470;-72
2021/12/23 10:59:13;;;;;;;106.03;69.27;;;0.70;99.90;;;;;;5040218;28;20073;-72
2021/12/23 11:02:02;;;;;;;113.57;73.07;;;0.70;99.90;;;;;;5040920;28;20133;-72
2021/12/23 11:04:37;;;;;;;100.57;70.07;;;0.70;99.90;;;;;;5023609;28;20471;-72
2021/12/23 11:07:17;;;;;;;97.33;65.93;;;0.80;99.90;;;;;;5036582;28;20492;-73
2021/12/23 11:10:17;;;;;;;108.07;72.40;;;0.70;99.90;;;;;;5046073;28;20525;-72
2021/12/23 11:41:50;;;;;;;;;;;0.80;99.90;;;;;;5045045;28;20165;-70
2021/12/23 11:44:06;;;;;;;107.33;70.33;;;0.80;99.90;;;;;;5027422;28;20002;-70
2021/12/23 11:46:44;;;;;;;123.40;76.87;;;0.80;99.90;;;;;;5051986;28;20103;-70
2021/12/23 11:49:12;;;;;;;107.33;71.33;;;0.80;99.90;;;;;;5051959;28;20049;-70
2021/12/23 11:54:06;;;;;;;119.90;74.67;;;0.80;99.90;;;;;;5026500;28;20060;-71
2021/12/23 11:56:38;;;;;;;123.67;75.93;;;0.80;99.90;;;;;;5033309;28;20566;-71
2021/12/23 11:59:05;;;;;;;106.13;67.23;;;0.80;99.90;;;;;;5048027;28;20103;-71
2021/12/23 12:01:42;;;;;;;109.43;70.87;;;0.80;99.90;;;;;;5027554;28;20128;-70
2021/12/23 12:04:10;;;;;;;113.87;71.53;;;0.90;99.90;;;;;;5018748;28;20436;-70
2021/12/23 12:06:35;;;;;;;106.73;69.77;;;0.90;99.90;;;;;;5016944;28;20076;-70
2021/12/23 12:09:22;;;;;;;119.23;73.80;;;0.90;99.90;;;;;;5014581;28;20522;-71
2021/12/23 12:12:07;;;;;;;111.00;69.60;;;0.90;99.90;;;;;;5029511;28;20069;-71
2021/12/23 12:14:40;;;;;;;109.23;69.63;;;0.90;99.90;;;;;;5024470;28;20050;-71
2021/12/23 12:17:26;;;;;;;118.87;73.93;;;0.90;99.90;;;;;;5032777;28;20052;-71
2021/12/23 12:20:09;;;;;;;114.93;71.97;;;0.90;99.90;;;;;;5024870;28;20049;-71
2021/12/23 12:22:59;;;;;;;109.23;67.97;;;0.90;99.90;;;;;;5036811;28;20061;-70
2021/12/23 12:25:25;;;;;;;111.83;70.87;;;0.90;99.90;;;;;;5027546;28;20408;-71
2021/12/23 12:27:51;;;;;;;114.60;71.17;;;0.90;99.90;;;;;;5032198;28;20041;-71
2021/12/23 12:30:21;;;;;;;106.57;68.50;;;0.90;99.90;;;;;;5027473;28;20064;-71
2021/12/23 12:32:47;;;;;;;104.60;67.38;;;0.90;99.90;;;;;;5031936;28;20053;-71
2021/12/23 12:35:20;;;;;;;100.30;65.43;;;0.90;99.90;;;;;;5014681;28;20404;-70
2021/12/23 12:37:50;;;;;;;118.53;71.33;;;1.00;99.90;;;;;;5005084;28;20579;-72
2021/12/23 12:40:16;;;;;;;;;;;1.00;99.90;;;;;;5030259;28;20173;-73
2021/12/23 12:42:46;;;;;;;114.23;70.07;;;1.00;99.90;;;;;;5027427;28;19972;-73
2021/12/23 12:45:24;;;;;;;104.70;68.65;;;1.00;99.90;;;;;;5048635;28;20051;-73
2021/12/23 12:47:56;;;;;;;93.63;62.43;;;1.00;99.90;;;;;;5048297;28;20044;-73
2021/12/23 12:50:27;;;;;;;100.17;66.47;;;1.00;99.90;;;;;;5026767;28;20053;-72
2021/12/23 12:53:00;;;;;;;99.63;65.57;;;1.10;99.90;;;;;;5041296;28;20131;-73
2021/12/23 12:55:27;;;;;;;101.53;64.07;;;1.10;99.90;;;;;;5027478;28;20049;-73
2021/12/23 12:57:56;;;;;;;98.93;63.30;;;1.10;99.90;;;;;;5025419;28;20077;-73
2021/12/23 13:00:31;;;;;;;105.53;66.03;;;1.10;99.90;;;;;;5045406;28;20083;-73
2021/12/23 13:03:14;;;;;;;97.07;63.27;;;1.20;99.90;;;;;;5040360;28;20049;-72
2021/12/23 13:05:47;;;;;;;102.23;64.70;;;1.10;99.90;;;;;;5042690;28;20052;-73
2021/12/23 13:08:19;;;;;;;103.00;63.83;;;1.10;99.90;;;;;;5043973;28;20068;-73
2021/12/23 13:10:48;;;;;;;101.90;66.33;;;1.20;99.90;;;;;;5044608;28;20041;-71
2021/12/23 13:13:35;;;;;;;98.07;64.53;;;1.10;99.90;;;;;;5021882;28;20542;-72
2021/12/23 13:16:15;;;;;;;107.07;68.13;;;1.10;99.90;;;;;;5041839;28;20225;-70
2021/12/23 13:18:41;;;;;;;109.22;66.50;;;1.10;99.90;;;;;;5052803;28;20057;-70
2021/12/23 13:21:08;;;;;;;103.73;65.33;;;1.10;99.90;;;;;;5044480;28;20128;-70
2021/12/23 13:23:41;;;;;;;96.27;63.13;;;1.10;99.90;;;;;;5030528;28;20388;-70
2021/12/23 13:26:19;;;;;;;101.67;64.90;;;1.10;99.90;;;;;;5007463;28;20048;-70
2021/12/23 13:28:53;;;;;;;102.80;65.93;;;1.10;99.90;;;;;;5035716;28;20492;-70
2021/12/23 13:31:20;;;;;;;98.53;65.60;;;1.10;99.90;;;;;;5044691;28;20063;-70
2021/12/23 13:33:53;;;;;;;105.03;66.97;;;1.10;99.90;;;;;;5042624;28;20043;-70
2021/12/23 13:36:28;;;;;;;106.47;68.63;;;1.20;99.90;;;;;;5019592;28;20386;-70
2021/12/23 13:38:58;;;;;;;102.53;65.03;;;1.10;99.90;;;;;;5034125;28;20167;-70
2021/12/23 13:41:24;;;;;;;104.60;64.88;;;1.10;99.90;;;;;;5029198;28;20143;-73
2021/12/23 13:43:53;;;;;;;107.57;67.03;;;1.10;99.90;;;;;;5030081;28;20140;-72